Cuyahoga County Airport
KCGF : now visible

Airfield :











YOU CAN JOIN US ON...

 
LOGIN :

Register | Disclaimer

   EN    FR    IT 

 









Legend :    VFR   Marginal VFR   IFR   Intensive IFR   Very Intensive IFR
Visi :
Ceiling :
>= 8 km
>= 3000ft
5 to 8 km
1000 to 3000 ft
1500m to 5 km
500 to 1000 ft
800 to 1500m
200 to 500 ft
< 800m
< 200 ft
Symbols :   Thunderstorms  Fog  Heavy snow  Heavy precipitations  Wind > 20 kt






- Airport Elevation : 879 ft


KCGF - Cuyahoga County

CURRENT METAR :
  • 221045Z 07005KT 10SM SCT005 OVC010 12/12 A3021

EXPIRED METARs :
  • 221015Z AUTO 09005KT 10SM -RA SCT003 OVC014 12/12 A3022 RMK AO2 T01190116
  • 220955Z AUTO 05008KT 4SM -RA BR BKN003 OVC012 12/12 A3022 RMK AO2 P0008 T01190116
  • 220935Z AUTO 34006KT 3SM RA BR BKN003 OVC006 12/11 A3022 RMK AO2 LTG DSNT NW P0003
  • 220915Z AUTO 09004KT 7SM -RA BR OVC006 12/11 A3021 RMK AO2 T01170114
  • 220855Z AUTO 04003KT 3SM -RA BR OVC008 12/11 A3021 RMK AO2 P0022 T01160112 60028

Expired Forecast.
KZOB FIR / North America



MET'MAP, your aeronautical weather chart ! - Copyright ORBIFLY December 2007 - Disclaimer

ORBIFLY MET'MAP TEAM :

Programming & Development : Alexandra Zaïnal
Concept & original design : Baudouin d'Aumeries
Assistance for programming : Marc-Olivier Méhu
Technical & hardware support : Manuel Goepfert

Contact : metmap@orbifly.com




SOURCES & CREDITS :

   NOAA       Earth
Advisory